Time;durP1;ratioP1;P1;durP2;ratioP2;P2;SDS_P1;SDS_P2;PMS_P1;PMS_P2;Temp;Humidity;BMP_temperature;BMP_pressure;BME280_temperature;BME280_humidity;BME280_pressure;Samples;Min_cycle;Max_cycle;Signal;HPM_P1;HPM_P2
2021/11/15 00:00:44;;;;;;;7.13;3.47;;;;;;;;;;5014495;28;20053;-74
2021/11/15 00:03:15;;;;;;;6.15;3.60;;;;;;;;;;5014675;28;20052;-74
2021/11/15 00:05:43;;;;;;;5.85;3.78;;;;;;;;;;5014367;28;20052;-73
2021/11/15 00:08:10;;;;;;;5.45;3.40;;;;;;;;;;5013429;28;20034;-74
2021/11/15 00:10:40;;;;;;;8.65;3.70;;;;;;;;;;5014006;28;20069;-74
2021/11/15 00:13:08;;;;;;;9.68;3.63;;;;;;;;;;5013264;28;20038;-73
2021/11/15 00:15:36;;;;;;;6.25;3.20;;;;;;;;;;5014742;28;20400;-74
2021/11/15 00:18:06;;;;;;;6.72;3.60;;;;;;;;;;5014236;28;20054;-73
2021/11/15 00:20:37;;;;;;;6.32;3.38;;;;;;;;;;5014531;28;20124;-73
2021/11/15 00:23:05;;;;;;;4.15;3.10;;;;;;;;;;5014883;28;20072;-74
2021/11/15 00:25:34;;;;;;;3.38;2.92;;;;;;;;;;5013260;28;20358;-74
2021/11/15 00:28:01;;;;;;;8.40;3.22;;;;;;;;;;5014719;28;20046;-73
2021/11/15 00:30:29;;;;;;;10.23;3.22;;;;;;;;;;5014490;28;20412;-74
2021/11/15 00:32:58;;;;;;;3.85;2.78;;;;;;;;;;5014264;28;20477;-74
2021/11/15 00:35:25;;;;;;;5.78;2.78;;;;;;;;;;5014189;28;20064;-74
2021/11/15 00:37:54;;;;;;;7.40;2.92;;;;;;;;;;5013565;28;20358;-73
2021/11/15 00:40:22;;;;;;;13.65;2.92;;;;;;;;;;5014071;28;20615;-73
2021/11/15 00:42:50;;;;;;;4.97;2.70;;;;;;;;;;5014082;28;20038;-73
2021/11/15 00:45:18;;;;;;;8.57;2.90;;;;;;;;;;5014650;28;20430;-74
2021/11/15 00:47:48;;;;;;;4.97;2.70;;;;;;;;;;5014163;28;20042;-74
2021/11/15 00:50:17;;;;;;;8.75;2.55;;;;;;;;;;5013872;28;20113;-74
2021/11/15 00:52:46;;;;;;;7.38;2.70;;;;;;;;;;5011153;28;20133;-73
2021/11/15 00:55:15;;;;;;;4.95;2.55;;;;;;;;;;5013498;28;20065;-72
2021/11/15 00:57:44;;;;;;;3.58;2.47;;;;;;;;;;5013993;28;20042;-74
2021/11/15 01:00:16;;;;;;;3.90;2.45;;;;;;;;;;5013644;28;21194;-75
2021/11/15 01:02:43;;;;;;;6.55;2.80;;;;;;;;;;5014053;28;20052;-74
2021/11/15 01:05:11;;;;;;;4.10;2.45;;;;;;;;;;5012818;28;20046;-73
2021/11/15 01:07:41;;;;;;;9.10;2.80;;;;;;;;;;5014096;28;20049;-73
2021/11/15 01:10:13;;;;;;;6.53;2.67;;;;;;;;;;5012800;28;20044;-74
2021/11/15 01:12:41;;;;;;;6.47;2.80;;;;;;;;;;5012430;28;20137;-74
2021/11/15 01:15:12;;;;;;;5.68;2.63;;;;;;;;;;5013570;28;20045;-72
2021/11/15 01:17:39;;;;;;;4.97;2.20;;;;;;;;;;5012025;28;20569;-73
2021/11/15 01:20:08;;;;;;;11.05;2.30;;;;;;;;;;5013799;28;20046;-72
2021/11/15 01:22:37;;;;;;;4.68;2.10;;;;;;;;;;5013282;28;20042;-74
2021/11/15 01:25:06;;;;;;;5.93;2.22;;;;;;;;;;5013260;28;20052;-73
2021/11/15 01:27:34;;;;;;;9.45;2.45;;;;;;;;;;5013747;28;20394;-75
2021/11/15 01:30:03;;;;;;;6.15;1.98;;;;;;;;;;5013181;28;20042;-72
2021/11/15 01:32:30;;;;;;;3.33;2.00;;;;;;;;;;5013494;28;20406;-74
2021/11/15 01:34:58;;;;;;;5.22;2.22;;;;;;;;;;5013143;28;20050;-73
2021/11/15 01:37:29;;;;;;;4.78;2.03;;;;;;;;;;5013176;28;20121;-75
2021/11/15 01:39:57;;;;;;;3.50;2.05;;;;;;;;;;5013258;28;20486;-73
2021/11/15 01:42:24;;;;;;;7.43;1.90;;;;;;;;;;5013215;28;20060;-74
2021/11/15 01:44:54;;;;;;;7.13;1.80;;;;;;;;;;5013415;28;20532;-73
2021/11/15 01:47:22;;;;;;;3.92;1.70;;;;;;;;;;5013758;28;20136;-72
2021/11/15 01:49:51;;;;;;;5.05;1.60;;;;;;;;;;5012953;28;20096;-74
2021/11/15 01:52:19;;;;;;;3.75;1.67;;;;;;;;;;5013007;28;20121;-73
2021/11/15 01:54:48;;;;;;;6.65;1.40;;;;;;;;;;5012949;28;20552;-73
2021/11/15 01:57:17;;;;;;;7.57;2.00;;;;;;;;;;5017243;28;20129;-73
2021/11/15 01:59:48;;;;;;;3.47;1.60;;;;;;;;;;5017165;28;20459;-73
2021/11/15 02:02:16;;;;;;;4.28;1.60;;;;;;;;;;5016905;28;20133;-72
2021/11/15 02:04:44;;;;;;;3.70;1.40;;;;;;;;;;5017455;28;20042;-73
2021/11/15 02:07:12;;;;;;;5.70;1.67;;;;;;;;;;5015023;28;20046;-74
2021/11/15 02:09:40;;;;;;;6.45;1.60;;;;;;;;;;5016703;28;20405;-73
2021/11/15 02:12:09;;;;;;;8.35;1.88;;;;;;;;;;4999654;28;20060;-74
2021/11/15 02:14:36;;;;;;;2.72;1.58;;;;;;;;;;5016823;28;20046;-74
2021/11/15 02:17:04;;;;;;;3.58;1.33;;;;;;;;;;5016605;28;20409;-73
2021/11/15 02:19:34;;;;;;;4.10;1.30;;;;;;;;;;5016737;28;20436;-74
2021/11/15 02:22:05;;;;;;;5.38;1.90;;;;;;;;;;5016394;28;20048;-74
2021/11/15 02:24:32;;;;;;;5.25;1.30;;;;;;;;;;5016767;28;20038;-74
2021/11/15 02:27:02;;;;;;;3.15;1.20;;;;;;;;;;5016732;28;20052;-72
2021/11/15 02:29:29;;;;;;;5.15;1.40;;;;;;;;;;5016509;28;20042;-73
2021/11/15 02:31:58;;;;;;;4.18;1.60;;;;;;;;;;5016581;28;20049;-75
2021/11/15 02:34:26;;;;;;;3.50;1.10;;;;;;;;;;5016385;28;20046;-74
2021/11/15 02:36:55;;;;;;;8.40;1.33;;;;;;;;;;5014739;28;20068;-74
2021/11/15 02:39:22;;;;;;;4.75;1.40;;;;;;;;;;5016514;28;20512;-72
2021/11/15 02:41:52;;;;;;;3.95;1.23;;;;;;;;;;5016430;28;20096;-74
2021/11/15 02:44:20;;;;;;;7.18;1.77;;;;;;;;;;5016648;28;20050;-73
2021/11/15 02:46:49;;;;;;;5.30;1.40;;;;;;;;;;5014657;28;20042;-73
2021/11/15 02:49:16;;;;;;;8.80;1.55;;;;;;;;;;5014521;28;20142;-74
2021/11/15 02:51:45;;;;;;;3.60;1.20;;;;;;;;;;5014387;28;20042;-72
2021/11/15 02:54:12;;;;;;;3.40;1.15;;;;;;;;;;5016193;28;20052;-72
2021/11/15 02:56:40;;;;;;;3.17;1.27;;;;;;;;;;5016047;28;20409;-73
2021/11/15 02:59:08;;;;;;;3.92;1.10;;;;;;;;;;5015704;28;20038;-73
2021/11/15 03:01:35;;;;;;;6.22;0.98;;;;;;;;;;5016274;28;20050;-72
2021/11/15 03:04:03;;;;;;;8.07;1.33;;;;;;;;;;5016479;28;20045;-72
2021/11/15 03:06:31;;;;;;;4.05;1.33;;;;;;;;;;5015079;28;20120;-74
2021/11/15 03:08:59;;;;;;;5.15;1.23;;;;;;;;;;5015963;28;20065;-74
2021/11/15 03:11:27;;;;;;;4.18;1.25;;;;;;;;;;5015554;28;20038;-72
2021/11/15 03:13:55;;;;;;;3.85;1.27;;;;;;;;;;5015436;28;20190;-74
2021/11/15 03:16:23;;;;;;;2.53;1.42;;;;;;;;;;5015227;28;20056;-74
2021/11/15 03:18:51;;;;;;;3.17;1.20;;;;;;;;;;5014265;28;20046;-74
2021/11/15 03:21:23;;;;;;;1.83;1.02;;;;;;;;;;5014949;28;20042;-73
2021/11/15 03:23:52;;;;;;;10.13;2.53;;;;;;;;;;5015650;28;20460;-73
2021/11/15 03:26:21;;;;;;;2.65;1.02;;;;;;;;;;5015344;28;20117;-74
2021/11/15 03:28:50;;;;;;;7.25;1.50;;;;;;;;;;5015539;28;20052;-74
2021/11/15 03:31:18;;;;;;;3.80;1.27;;;;;;;;;;5015117;28;20045;-72
2021/11/15 03:33:53;;;;;;;7.40;1.23;;;;;;;;;;5014798;28;20060;-73
2021/11/15 03:36:21;;;;;;;2.10;1.13;;;;;;;;;;5015418;28;20046;-74
2021/11/15 03:38:53;;;;;;;3.50;1.40;;;;;;;;;;5015137;28;20092;-74
2021/11/15 03:41:21;;;;;;;5.47;1.33;;;;;;;;;;5015029;28;20065;-72
2021/11/15 03:43:52;;;;;;;4.25;1.13;;;;;;;;;;5015299;28;20037;-74
2021/11/15 03:46:20;;;;;;;4.88;1.30;;;;;;;;;;5015579;28;20441;-73
2021/11/15 03:48:51;;;;;;;4.63;1.15;;;;;;;;;;5014411;28;20050;-72
2021/11/15 03:51:19;;;;;;;2.92;1.42;;;;;;;;;;5015180;28;20042;-72
2021/11/15 03:53:48;;;;;;;4.63;1.33;;;;;;;;;;5014818;28;20042;-73
2021/11/15 03:56:22;;;;;;;3.55;1.40;;;;;;;;;;5014854;28;20042;-72
2021/11/15 03:58:50;;;;;;;9.10;1.92;;;;;;;;;;5015187;28;20507;-73
2021/11/15 04:01:21;;;;;;;2.05;1.40;;;;;;;;;;5013888;28;20038;-74
2021/11/15 04:03:49;;;;;;;3.67;1.52;;;;;;;;;;5014548;28;20072;-72
2021/11/15 04:06:25;;;;;;;4.25;1.40;;;;;;;;;;5015374;28;20042;-74
2021/11/15 04:08:54;;;;;;;7.53;1.60;;;;;;;;;;5014658;28;20121;-74
2021/11/15 04:11:23;;;;;;;1.63;1.20;;;;;;;;;;5014743;28;20037;-74
2021/11/15 04:13:54;;;;;;;4.68;1.60;;;;;;;;;;5014530;28;20038;-73
2021/11/15 04:16:22;;;;;;;4.93;2.05;;;;;;;;;;5014661;28;20050;-72
2021/11/15 04:18:52;;;;;;;2.88;1.45;;;;;;;;;;5013282;28;20464;-73
2021/11/15 04:21:22;;;;;;;3.80;1.50;;;;;;;;;;5014858;28;20065;-73
2021/11/15 04:23:49;;;;;;;4.70;1.70;;;;;;;;;;5014506;28;20084;-74
2021/11/15 04:26:17;;;;;;;4.03;1.67;;;;;;;;;;5014549;28;20034;-74
2021/11/15 04:28:45;;;;;;;2.58;1.55;;;;;;;;;;5013058;28;20042;-73
2021/11/15 04:31:14;;;;;;;3.10;1.45;;;;;;;;;;5014340;28;20464;-72
2021/11/15 04:33:42;;;;;;;4.00;1.40;;;;;;;;;;5013662;28;20038;-72
2021/11/15 04:36:10;;;;;;;5.15;1.60;;;;;;;;;;5014503;28;20052;-74
2021/11/15 04:38:37;;;;;;;2.92;1.70;;;;;;;;;;5014373;28;20442;-72
2021/11/15 04:41:05;;;;;;;7.22;2.33;;;;;;;;;;5014152;28;20049;-72
2021/11/15 04:43:35;;;;;;;4.70;2.08;;;;;;;;;;5014352;28;20042;-73
2021/11/15 04:46:04;;;;;;;4.68;2.20;;;;;;;;;;5014078;28;20038;-74
2021/11/15 04:48:32;;;;;;;4.00;2.17;;;;;;;;;;5013485;28;20437;-73
2021/11/15 04:51:01;;;;;;;3.97;2.40;;;;;;;;;;5013888;28;20046;-74
2021/11/15 04:53:30;;;;;;;3.78;2.50;;;;;;;;;;5014069;28;20042;-74
2021/11/15 04:55:57;;;;;;;4.38;2.25;;;;;;;;;;5013754;28;20034;-72
2021/11/15 04:58:26;;;;;;;6.10;2.35;;;;;;;;;;5014089;28;20037;-73
2021/11/15 05:00:53;;;;;;;2.60;2.28;;;;;;;;;;5013269;28;20049;-73
2021/11/15 05:03:21;;;;;;;4.57;2.38;;;;;;;;;;5013620;28;20046;-73
2021/11/15 05:05:49;;;;;;;7.60;2.22;;;;;;;;;;5014212;28;20048;-72
2021/11/15 05:08:16;;;;;;;5.40;2.40;;;;;;;;;;5013539;28;20049;-73
2021/11/15 05:10:46;;;;;;;5.28;2.22;;;;;;;;;;5013405;28;20113;-73
2021/11/15 05:13:14;;;;;;;2.65;2.10;;;;;;;;;;5013746;28;20048;-72
2021/11/15 05:15:41;;;;;;;7.80;2.28;;;;;;;;;;5012129;28;20041;-72
2021/11/15 05:18:09;;;;;;;8.95;4.30;;;;;;;;;;5013328;28;20513;-72
2021/11/15 05:20:38;;;;;;;4.72;2.75;;;;;;;;;;5013627;28;20053;-73
2021/11/15 05:23:08;;;;;;;5.97;2.30;;;;;;;;;;5014020;28;20069;-73
2021/11/15 05:25:36;;;;;;;4.43;2.08;;;;;;;;;;5013844;28;20046;-73
2021/11/15 05:28:04;;;;;;;3.67;2.10;;;;;;;;;;5012052;28;20053;-72
2021/11/15 05:30:31;;;;;;;3.08;2.05;;;;;;;;;;5013074;28;20373;-76
2021/11/15 05:32:59;;;;;;;5.30;2.00;;;;;;;;;;5012034;28;20041;-72
2021/11/15 05:35:28;;;;;;;5.05;2.10;;;;;;;;;;5013449;28;20044;-74
2021/11/15 05:37:57;;;;;;;6.28;2.38;;;;;;;;;;5013137;28;20466;-74
2021/11/15 05:40:26;;;;;;;7.20;2.47;;;;;;;;;;5013356;28;20052;-73
2021/11/15 05:42:55;;;;;;;5.15;2.15;;;;;;;;;;5013649;28;20048;-74
2021/11/15 05:45:24;;;;;;;4.28;2.10;;;;;;;;;;5012832;28;20046;-75
2021/11/15 05:47:52;;;;;;;3.97;2.33;;;;;;;;;;5013411;28;20038;-74
2021/11/15 05:50:20;;;;;;;4.95;2.45;;;;;;;;;;5012977;28;20056;-75
2021/11/15 05:52:49;;;;;;;4.47;2.50;;;;;;;;;;5012814;28;20079;-74
2021/11/15 05:55:20;;;;;;;4.90;2.40;;;;;;;;;;5013213;28;20038;-74
2021/11/15 05:57:48;;;;;;;6.68;2.42;;;;;;;;;;5012668;28;20044;-73
2021/11/15 06:00:17;;;;;;;5.00;2.60;;;;;;;;;;5011291;28;20049;-73
2021/11/15 06:02:44;;;;;;;5.07;2.40;;;;;;;;;;5012991;28;20125;-74
2021/11/15 06:05:13;;;;;;;5.75;2.40;;;;;;;;;;5013508;28;20137;-75
2021/11/15 06:07:41;;;;;;;4.80;2.40;;;;;;;;;;5012952;28;20068;-73
2021/11/15 06:10:09;;;;;;;5.60;2.78;;;;;;;;;;5011648;28;20053;-74
2021/11/15 06:12:38;;;;;;;8.40;2.88;;;;;;;;;;5012626;28;20050;-74
2021/11/15 06:15:06;;;;;;;10.90;3.00;;;;;;;;;;5012616;28;20045;-73
2021/11/15 06:17:35;;;;;;;6.20;2.55;;;;;;;;;;5012911;28;20050;-74
2021/11/15 06:20:04;;;;;;;3.58;2.40;;;;;;;;;;5012847;28;20045;-73
2021/11/15 06:22:35;;;;;;;4.13;2.67;;;;;;;;;;5013236;28;20049;-73
2021/11/15 06:25:04;;;;;;;7.18;2.75;;;;;;;;;;5013028;28;20548;-73
2021/11/15 06:27:32;;;;;;;3.97;2.75;;;;;;;;;;5011735;28;20124;-74
2021/11/15 06:30:00;;;;;;;7.95;2.83;;;;;;;;;;5010231;28;20053;-74
2021/11/15 06:32:27;;;;;;;5.97;2.97;;;;;;;;;;5010182;28;20050;-73
2021/11/15 06:34:58;;;;;;;7.05;2.65;;;;;;;;;;5010178;28;20057;-76
2021/11/15 06:37:27;;;;;;;6.93;3.15;;;;;;;;;;5010626;28;20458;-73
2021/11/15 06:39:55;;;;;;;4.43;2.83;;;;;;;;;;5012189;28;20468;-74
2021/11/15 06:42:22;;;;;;;7.97;2.92;;;;;;;;;;5014375;28;20046;-75
2021/11/15 06:44:51;;;;;;;11.95;3.10;;;;;;;;;;5016105;28;20042;-75
2021/11/15 06:47:20;;;;;;;5.85;2.50;;;;;;;;;;5015690;28;20038;-76
2021/11/15 06:49:51;;;;;;;4.50;2.53;;;;;;;;;;5015810;28;20042;-76
2021/11/15 06:52:20;;;;;;;7.28;2.60;;;;;;;;;;5014591;28;20074;-75
2021/11/15 06:54:47;;;;;;;3.72;2.33;;;;;;;;;;5014478;28;20049;-75
2021/11/15 06:57:16;;;;;;;6.05;2.67;;;;;;;;;;5015212;28;20564;-76
2021/11/15 06:59:44;;;;;;;4.68;2.10;;;;;;;;;;5015765;28;20048;-75
2021/11/15 07:02:13;;;;;;;2.33;2.10;;;;;;;;;;5015430;28;20052;-75
2021/11/15 07:04:41;;;;;;;4.00;2.40;;;;;;;;;;5015446;28;20061;-73
2021/11/15 07:07:10;;;;;;;7.15;2.13;;;;;;;;;;4997724;28;20088;-75
2021/11/15 07:09:38;;;;;;;5.57;2.17;;;;;;;;;;5015186;28;20053;-73
2021/11/15 07:12:06;;;;;;;7.50;2.08;;;;;;;;;;5013676;28;20052;-75
2021/11/15 07:14:33;;;;;;;9.73;2.88;;;;;;;;;;5014726;28;20033;-76
2021/11/15 07:17:02;;;;;;;7.35;2.28;;;;;;;;;;5013298;28;20521;-73
2021/11/15 07:19:30;;;;;;;6.32;2.40;;;;;;;;;;5014741;28;20054;-75
2021/11/15 07:21:59;;;;;;;17.10;5.00;;;;;;;;;;5014979;28;20093;-74
2021/11/15 07:24:27;;;;;;;9.43;4.60;;;;;;;;;;5014912;28;20045;-74
2021/11/15 07:26:56;;;;;;;7.43;3.55;;;;;;;;;;5014684;28;20501;-75
2021/11/15 07:29:23;;;;;;;12.88;3.45;;;;;;;;;;5014696;28;20064;-74
2021/11/15 07:31:52;;;;;;;8.00;2.65;;;;;;;;;;5014109;28;20046;-75
2021/11/15 07:34:22;;;;;;;12.60;4.75;;;;;;;;;;5014566;28;20084;-74
2021/11/15 07:36:49;;;;;;;9.85;3.47;;;;;;;;;;5014777;28;20034;-76
2021/11/15 07:39:18;;;;;;;9.45;4.38;;;;;;;;;;5014409;28;20042;-75
2021/11/15 07:41:46;;;;;;;6.45;3.13;;;;;;;;;;5014218;28;20042;-79
2021/11/15 07:44:19;;;;;;;14.18;4.70;;;;;;;;;;5012928;28;20462;-83
2021/11/15 07:46:49;;;;;;;9.75;3.28;;;;;;;;;;5013601;28;20054;-78
2021/11/15 07:49:17;;;;;;;8.15;3.10;;;;;;;;;;5014428;28;20046;-77
2021/11/15 07:51:45;;;;;;;8.32;2.85;;;;;;;;;;5012811;28;20537;-82
2021/11/15 07:54:12;;;;;;;11.82;3.80;;;;;;;;;;5013097;28;20048;-79
2021/11/15 07:56:40;;;;;;;8.38;3.33;;;;;;;;;;5013704;28;20045;-83
2021/11/15 07:59:10;;;;;;;7.32;2.95;;;;;;;;;;5014384;28;20038;-81
2021/11/15 08:01:38;;;;;;;5.45;2.50;;;;;;;;;;5013828;28;20054;-83
2021/11/15 08:04:07;;;;;;;7.82;3.35;;;;;;;;;;5014760;28;20045;-76
2021/11/15 08:06:34;;;;;;;10.63;3.30;;;;;;;;;;5014614;28;20120;-79
2021/11/15 08:09:03;;;;;;;6.60;2.95;;;;;;;;;;5014705;28;20397;-82
2021/11/15 08:11:32;;;;;;;4.03;3.00;;;;;;;;;;5014113;28;20038;-82
2021/11/15 08:13:59;;;;;;;9.55;4.00;;;;;;;;;;5014606;28;20041;-80
2021/11/15 08:16:27;;;;;;;19.90;4.93;;;;;;;;;;5094441;23;20500;-79
2021/11/15 08:18:57;;;;;;;8.68;5.03;;;;;;;;;;5013057;28;20042;-82
2021/11/15 08:21:26;;;;;;;12.13;6.00;;;;;;;;;;5014526;28;20130;-79
2021/11/15 08:23:54;;;;;;;17.00;8.38;;;;;;;;;;5013997;28;20045;-76
2021/11/15 08:26:45;;;;;;;13.85;6.97;;;;;;;;;;5014272;28;20068;-83
2021/11/15 08:29:20;;;;;;;19.98;6.97;;;;;;;;;;5014565;28;20119;-76
2021/11/15 08:31:48;;;;;;;16.80;6.53;;;;;;;;;;5013998;28;20526;-80
2021/11/15 08:34:17;;;;;;;16.95;6.03;;;;;;;;;;5013491;28;20446;-76
2021/11/15 08:36:45;;;;;;;10.07;5.55;;;;;;;;;;5013675;28;20048;-83
2021/11/15 08:39:15;;;;;;;9.23;5.03;;;;;;;;;;5013048;28;20038;-83
2021/11/15 08:41:46;;;;;;;9.90;4.90;;;;;;;;;;5014160;28;20455;-76
2021/11/15 08:44:16;;;;;;;9.73;4.68;;;;;;;;;;5014161;28;20046;-78
2021/11/15 08:46:45;;;;;;;13.35;4.63;;;;;;;;;;5014123;28;20046;-78
2021/11/15 08:49:14;;;;;;;12.73;4.47;;;;;;;;;;5012406;28;20053;-83
2021/11/15 08:51:44;;;;;;;8.88;3.88;;;;;;;;;;5013942;28;20046;-82
2021/11/15 08:54:15;;;;;;;9.38;3.72;;;;;;;;;;5012110;28;20132;-78
2021/11/15 08:56:46;;;;;;;8.75;3.10;;;;;;;;;;5013943;28;20362;-76
2021/11/15 08:59:34;;;;;;;5.78;3.13;;;;;;;;;;5013855;28;20045;-78
2021/11/15 09:02:02;;;;;;;15.05;3.97;;;;;;;;;;5013615;28;20041;-82
2021/11/15 09:04:30;;;;;;;13.95;3.70;;;;;;;;;;5011915;28;20045;-76
2021/11/15 09:06:59;;;;;;;13.15;3.83;;;;;;;;;;5013741;28;20060;-81
2021/11/15 09:09:28;;;;;;;6.53;3.58;;;;;;;;;;5012205;28;20046;-82
2021/11/15 09:11:58;;;;;;;7.40;3.28;;;;;;;;;;5013342;28;20103;-83
2021/11/15 09:14:26;;;;;;;7.68;3.30;;;;;;;;;;5012202;28;20057;-80
2021/11/15 09:16:54;;;;;;;6.57;3.10;;;;;;;;;;5012934;28;20077;-76
2021/11/15 09:19:25;;;;;;;9.10;3.83;;;;;;;;;;5012013;28;20495;-76
2021/11/15 09:21:54;;;;;;;9.20;2.70;;;;;;;;;;5011857;28;20050;-76
2021/11/15 09:24:22;;;;;;;7.50;2.63;;;;;;;;;;5013138;28;20505;-82
2021/11/15 09:26:50;;;;;;;6.05;2.50;;;;;;;;;;5011853;28;20045;-82
2021/11/15 09:29:18;;;;;;;7.60;2.50;;;;;;;;;;5012057;28;20400;-76
2021/11/15 09:31:50;;;;;;;6.30;1.48;;;;;;;;;;5011925;28;20046;-80
2021/11/15 09:34:18;;;;;;;6.07;1.85;;;;;;;;;;5012953;28;20046;-82
2021/11/15 09:36:45;;;;;;;7.28;1.88;;;;;;;;;;5012923;28;20049;-76
2021/11/15 09:39:14;;;;;;;7.60;1.27;;;;;;;;;;5011724;28;20041;-79
2021/11/15 09:41:45;;;;;;;4.65;1.45;;;;;;;;;;5012832;28;20564;-79
2021/11/15 09:44:14;;;;;;;3.60;1.37;;;;;;;;;;5011405;28;20086;-79
2021/11/15 09:46:43;;;;;;;4.97;1.58;;;;;;;;;;5012586;28;20041;-79
2021/11/15 09:49:12;;;;;;;6.50;1.95;;;;;;;;;;5011322;28;20120;-80
2021/11/15 09:51:40;;;;;;;3.17;1.52;;;;;;;;;;5012071;28;20128;-82
2021/11/15 09:54:09;;;;;;;9.43;1.58;;;;;;;;;;5011549;28;20038;-78
2021/11/15 09:56:39;;;;;;;4.93;1.83;;;;;;;;;;5012935;28;20046;-75
2021/11/15 09:59:10;;;;;;;6.25;2.10;;;;;;;;;;5011467;28;20072;-82
2021/11/15 10:01:40;;;;;;;6.85;1.73;;;;;;;;;;5012717;28;20045;-79
2021/11/15 10:04:08;;;;;;;5.90;1.60;;;;;;;;;;5011552;28;20100;-79
2021/11/15 10:06:36;;;;;;;4.20;1.40;;;;;;;;;;5012343;28;20042;-79
2021/11/15 10:09:04;;;;;;;6.38;2.60;;;;;;;;;;5011664;28;20059;-79
2021/11/15 10:11:40;;;;;;;5.93;1.80;;;;;;;;;;5012844;28;20034;-82
2021/11/15 10:14:08;;;;;;;5.00;2.30;;;;;;;;;;5011754;28;20077;-79
2021/11/15 10:16:35;;;;;;;7.72;2.20;;;;;;;;;;5013306;28;20133;-80
2021/11/15 10:19:05;;;;;;;5.57;1.60;;;;;;;;;;5014918;28;20046;-82
2021/11/15 10:21:37;;;;;;;9.95;2.00;;;;;;;;;;5014714;28;20412;-82
2021/11/15 10:24:09;;;;;;;4.13;1.50;;;;;;;;;;5015228;28;20438;-79
2021/11/15 10:26:40;;;;;;;3.85;1.23;;;;;;;;;;5016735;28;20046;-75
2021/11/15 10:29:35;;;;;;;5.80;2.13;;;;;;;;;;5016710;28;20042;-76
2021/11/15 10:32:03;;;;;;;9.57;3.15;;;;;;;;;;5009690;28;20053;-76
2021/11/15 10:34:36;;;;;;;5.07;2.90;;;;;;;;;;5016144;28;20042;-82
2021/11/15 10:37:09;;;;;;;6.25;1.80;;;;;;;;;;5016406;28;20034;-82
2021/11/15 10:39:40;;;;;;;8.63;3.47;;;;;;;;;;5016170;28;20092;-76
2021/11/15 10:42:13;;;;;;;4.88;2.00;;;;;;;;;;5016228;28;20042;-80
2021/11/15 10:44:54;;;;;;;4.38;1.55;;;;;;;;;;5015863;28;20042;-76
2021/11/15 10:47:41;;;;;;;4.68;1.52;;;;;;;;;;5016284;28;20049;-76
2021/11/15 10:50:17;;;;;;;4.50;1.48;;;;;;;;;;5015280;28;20080;-81
2021/11/15 10:53:00;;;;;;;6.30;2.00;;;;;;;;;;5015949;28;20493;-78
2021/11/15 10:55:30;;;;;;;3.13;1.20;;;;;;;;;;5014622;28;20444;-78
2021/11/15 10:57:59;;;;;;;5.35;2.05;;;;;;;;;;5016093;28;20042;-82
2021/11/15 11:00:36;;;;;;;8.13;2.67;;;;;;;;;;5016052;28;20485;-83
2021/11/15 11:03:04;;;;;;;3.10;1.55;;;;;;;;;;5016135;28;20405;-78
2021/11/15 11:05:33;;;;;;;5.60;2.08;;;;;;;;;;5014298;28;20046;-76
2021/11/15 11:08:33;;;;;;;4.55;1.70;;;;;;;;;;5016107;28;20505;-79
2021/11/15 11:11:06;;;;;;;3.47;1.48;;;;;;;;;;4993781;28;20049;-80
2021/11/15 11:13:43;;;;;;;9.63;1.50;;;;;;;;;;5015637;28;20045;-79
2021/11/15 11:16:14;;;;;;;4.18;1.55;;;;;;;;;;5015029;28;20085;-80
2021/11/15 11:18:48;;;;;;;4.88;1.50;;;;;;;;;;5013712;28;20093;-79
2021/11/15 11:26:32;;;;;;;3.17;1.20;;;;;;;;;;5015005;28;20077;-80
2021/11/15 11:29:03;;;;;;;8.48;1.52;;;;;;;;;;4997817;28;20042;-77
2021/11/15 11:31:32;;;;;;;4.93;1.30;;;;;;;;;;5014232;28;20460;-80
2021/11/15 11:34:00;;;;;;;3.25;1.30;;;;;;;;;;5013796;28;20037;-80
2021/11/15 11:36:28;;;;;;;5.30;1.83;;;;;;;;;;5015433;28;20359;-83
2021/11/15 11:38:56;;;;;;;3.90;1.48;;;;;;;;;;5015025;28;20045;-84
2021/11/15 11:41:24;;;;;;;9.75;1.75;;;;;;;;;;5014856;28;20095;-80
2021/11/15 11:43:54;;;;;;;3.22;1.60;;;;;;;;;;5015308;28;20381;-79
2021/11/15 11:46:23;;;;;;;3.42;1.48;;;;;;;;;;5015000;28;20038;-79
2021/11/15 11:48:52;;;;;;;3.92;1.75;;;;;;;;;;5014982;28;20052;-83
2021/11/15 11:51:23;;;;;;;6.95;1.50;;;;;;;;;;5014997;28;20442;-78
2021/11/15 11:54:17;;;;;;;5.55;1.48;;;;;;;;;;5016109;28;20034;-80
2021/11/15 11:57:03;;;;;;;4.18;1.67;;;;;;;;;;5013530;28;20053;-79
2021/11/15 11:59:32;;;;;;;3.88;1.70;;;;;;;;;;5014113;28;20038;-80
2021/11/15 12:02:07;;;;;;;6.28;1.70;;;;;;;;;;5014626;28;20045;-80
2021/11/15 12:04:53;;;;;;;11.98;1.90;;;;;;;;;;5015652;28;20049;-80
2021/11/15 12:07:23;;;;;;;3.05;1.50;;;;;;;;;;5015402;28;20117;-84
2021/11/15 12:09:51;;;;;;;10.13;2.40;;;;;;;;;;5012658;28;20507;-80
2021/11/15 12:12:18;;;;;;;6.45;1.65;;;;;;;;;;5012415;28;20045;-78
2021/11/15 12:14:46;;;;;;;7.32;1.52;;;;;;;;;;5013231;28;20044;-80
2021/11/15 12:17:18;;;;;;;4.97;1.45;;;;;;;;;;5014476;28;20081;-83
2021/11/15 12:19:52;;;;;;;7.35;1.83;;;;;;;;;;5012940;28;20046;-79
2021/11/15 12:22:23;;;;;;;4.53;1.67;;;;;;;;;;5014015;28;20042;-77
2021/11/15 12:25:07;;;;;;;7.18;1.90;;;;;;;;;;5013394;28;20044;-76
2021/11/15 12:27:54;;;;;;;6.38;1.63;;;;;;;;;;5013593;28;20045;-77
2021/11/15 12:30:28;;;;;;;9.40;1.98;;;;;;;;;;5015606;28;20046;-84
2021/11/15 12:32:55;;;;;;;;;;;;;;;;;;5014496;28;20073;-77
2021/11/15 12:35:23;;;;;;;5.57;1.67;;;;;;;;;;5015297;28;20301;-80
2021/11/15 12:37:51;;;;;;;7.57;1.95;;;;;;;;;;5014024;28;20068;-84
2021/11/15 12:40:50;;;;;;;4.13;1.60;;;;;;;;;;5014045;28;20048;-78
2021/11/15 12:43:18;;;;;;;5.38;1.67;;;;;;;;;;4991773;28;20233;-79
2021/11/15 12:46:07;;;;;;;4.95;1.70;;;;;;;;;;4997020;28;20038;-77
2021/11/15 12:48:46;;;;;;;4.88;2.20;;;;;;;;;;4993394;28;20046;-83
2021/11/15 12:51:19;;;;;;;5.30;2.30;;;;;;;;;;4995611;28;20044;-82
2021/11/15 12:53:50;;;;;;;6.30;1.80;;;;;;;;;;4994892;28;20046;-77
2021/11/15 12:56:19;;;;;;;8.10;1.70;;;;;;;;;;4995951;28;20551;-79
2021/11/15 12:58:51;;;;;;;3.42;1.73;;;;;;;;;;5002991;28;20089;-77
2021/11/15 13:01:19;;;;;;;3.67;1.53;;;;;;;;;;5014948;28;20040;-80
2021/11/15 13:03:48;;;;;;;11.45;1.70;;;;;;;;;;5009479;28;20121;-77
2021/11/15 13:06:17;;;;;;;4.57;1.80;;;;;;;;;;5015377;28;20038;-77
2021/11/15 13:08:48;;;;;;;7.80;1.88;;;;;;;;;;5012333;28;20144;-79
2021/11/15 13:11:17;;;;;;;;;;;;;;;;;;5014255;28;20069;-83
2021/11/15 13:13:44;;;;;;;6.43;2.03;;;;;;;;;;5013101;28;19936;-79
2021/11/15 13:16:13;;;;;;;7.40;1.70;;;;;;;;;;5012700;28;20054;-77
2021/11/15 13:18:41;;;;;;;15.73;2.22;;;;;;;;;;5013547;28;20073;-79
2021/11/15 13:21:10;;;;;;;5.93;2.47;;;;;;;;;;5013783;28;20050;-77
2021/11/15 13:23:38;;;;;;;6.05;1.88;;;;;;;;;;5014671;28;20387;-77
2021/11/15 13:26:06;;;;;;;4.65;1.40;;;;;;;;;;5016028;28;20130;-80
2021/11/15 13:28:36;;;;;;;6.40;1.73;;;;;;;;;;5013650;28;20048;-80
2021/11/15 13:31:05;;;;;;;7.85;1.80;;;;;;;;;;5015474;28;20038;-79
2021/11/15 13:33:34;;;;;;;9.15;2.30;;;;;;;;;;5012759;28;20045;-79
2021/11/15 13:36:04;;;;;;;6.82;1.98;;;;;;;;;;5012893;28;20037;-77
2021/11/15 13:38:33;;;;;;;7.57;2.03;;;;;;;;;;5013513;28;20315;-80
2021/11/15 13:41:02;;;;;;;5.22;1.80;;;;;;;;;;5015010;28;20125;-83
2021/11/15 13:43:30;;;;;;;5.32;1.73;;;;;;;;;;5015414;28;20046;-78
2021/11/15 13:45:58;;;;;;;5.20;1.50;;;;;;;;;;5017728;28;20045;-79
2021/11/15 13:48:30;;;;;;;7.63;1.67;;;;;;;;;;5014091;28;20456;-79
2021/11/15 13:50:58;;;;;;;4.10;2.13;;;;;;;;;;5018159;28;20092;-76
2021/11/15 13:53:26;;;;;;;5.90;1.70;;;;;;;;;;5020004;28;20398;-83
2021/11/15 13:55:54;;;;;;;3.83;1.60;;;;;;;;;;5003029;28;20409;-79
2021/11/15 13:58:22;;;;;;;7.80;2.05;;;;;;;;;;5020333;28;20477;-83
2021/11/15 14:01:05;;;;;;;8.43;1.98;;;;;;;;;;5019834;28;20042;-79
2021/11/15 14:03:33;;;;;;;7.07;2.25;;;;;;;;;;5023526;28;20045;-79
2021/11/15 14:06:02;;;;;;;4.57;2.00;;;;;;;;;;5002787;28;20074;-76
2021/11/15 14:08:32;;;;;;;4.97;2.13;;;;;;;;;;5003003;28;20105;-76
2021/11/15 14:11:04;;;;;;;3.58;1.33;;;;;;;;;;5000847;28;20050;-81
2021/11/15 14:13:35;;;;;;;6.85;1.83;;;;;;;;;;4998399;28;20042;-80
2021/11/15 14:16:04;;;;;;;7.82;1.90;;;;;;;;;;4997969;28;20050;-80
2021/11/15 14:18:31;;;;;;;7.18;1.83;;;;;;;;;;4994406;28;20497;-81
2021/11/15 14:20:59;;;;;;;11.15;2.47;;;;;;;;;;4998540;28;20044;-79
2021/11/15 14:23:30;;;;;;;4.35;1.50;;;;;;;;;;5001468;28;20496;-81
2021/11/15 14:26:03;;;;;;;3.95;1.77;;;;;;;;;;4998878;28;20141;-77
2021/11/15 14:28:30;;;;;;;5.80;1.85;;;;;;;;;;5006304;28;20517;-76
2021/11/15 14:30:58;;;;;;;8.35;2.50;;;;;;;;;;5003934;28;20521;-79
2021/11/15 14:33:26;;;;;;;6.28;1.90;;;;;;;;;;4998572;28;20039;-76
2021/11/15 14:35:57;;;;;;;8.18;1.90;;;;;;;;;;4999899;28;20046;-79
2021/11/15 14:38:25;;;;;;;2.47;1.83;;;;;;;;;;4999791;28;20034;-78
2021/11/15 14:40:52;;;;;;;7.32;2.30;;;;;;;;;;5001383;28;20038;-83
2021/11/15 14:43:20;;;;;;;6.28;2.05;;;;;;;;;;4998506;28;20081;-80
2021/11/15 14:45:53;;;;;;;4.70;1.65;;;;;;;;;;4999563;28;20397;-83
2021/11/15 14:48:26;;;;;;;9.77;2.38;;;;;;;;;;4998299;28;20406;-80
2021/11/15 14:50:54;;;;;;;3.20;1.60;;;;;;;;;;4999957;28;20473;-82
2021/11/15 14:53:21;;;;;;;13.25;2.30;;;;;;;;;;4999734;28;20060;-83
2021/11/15 14:55:49;;;;;;;6.38;2.22;;;;;;;;;;5001500;28;20046;-77
2021/11/15 14:58:16;;;;;;;5.95;2.13;;;;;;;;;;4998923;28;20044;-77
2021/11/15 15:00:45;;;;;;;5.07;2.20;;;;;;;;;;4982146;28;20030;-76
2021/11/15 15:03:12;;;;;;;4.82;1.80;;;;;;;;;;4996198;28;20052;-79